Monroe, New Hampshire
Current Conditions -  °F | °C
As of 6:55 PM on Friday 31 Oct 2014 (Local Time) from KCDA Reporting Station
Overcast Overcast  
Wind Chill: 37°   Ceiling: 5000
Heat Index: 42°   Visibility: 10mi
Dew Point: 27°   Wind: 8mph
Humidity: 55%   Direction: 330°NNW
Pressure: 30.03"   Gusts: NA
Location:  44.26°N, 72.06°W
Report Text: KCDA 312255Z AUTO 33007KT 10SM OVC050 06/M03 A3003 RMK AO2 T00571027
Loading
Personal Weather Stations






























Interactive Weather Map
Tropical Storm Tracking
New forecast layout! Learn more

10-Day Weather Forecast

Advertisements
Track Severe Weather on mobile